sensor_id;sensor_type;location;lat;lon;timestamp;pressure;altitude;pressure_sealevel;temperature;humidity
39295;BME280;52361;52.100;5.248;2023-03-22T00:01:22;100845.0;;;11.52;100.0
39295;BME280;52361;52.100;5.248;2023-03-22T00:02:59;100838.0;;;11.53;100.0
39295;BME280;52361;52.100;5.248;2023-03-22T00:04:35;100842.0;;;11.58;100.0
39295;BME280;52361;52.100;5.248;2023-03-22T00:07:48;100838.0;;;11.49;100.0
39295;BME280;52361;52.100;5.248;2023-03-22T00:09:24;100834.0;;;11.43;100.0
39295;BME280;52361;52.100;5.248;2023-03-22T00:11:00;100831.0;;;11.52;100.0
39295;BME280;52361;52.100;5.248;2023-03-22T00:14:14;100823.0;;;11.52;100.0
39295;BME280;52361;52.100;5.248;2023-03-22T00:15:50;100824.0;;;11.48;100.0
39295;BME280;52361;52.100;5.248;2023-03-22T00:17:26;100816.0;;;11.48;100.0
39295;BME280;52361;52.100;5.248;2023-03-22T00:19:02;100817.0;;;11.41;100.0
39295;BME280;52361;52.100;5.248;2023-03-22T00:22:23;100814.0;;;11.41;100.0
39295;BME280;52361;52.100;5.248;2023-03-22T00:23:59;100808.0;;;11.32;100.0
39295;BME280;52361;52.100;5.248;2023-03-22T00:25:35;100809.0;;;11.38;100.0
39295;BME280;52361;52.100;5.248;2023-03-22T00:28:48;100812.0;;;11.39;100.0
39295;BME280;52361;52.100;5.248;2023-03-22T00:30:24;100814.0;;;11.27;100.0
39295;BME280;52361;52.100;5.248;2023-03-22T00:32:00;100811.0;;;11.31;100.0
39295;BME280;52361;52.100;5.248;2023-03-22T00:35:13;100807.0;;;11.33;100.0
39295;BME280;52361;52.100;5.248;2023-03-22T00:36:50;100808.0;;;11.39;100.0
39295;BME280;52361;52.100;5.248;2023-03-22T00:38:26;100810.0;;;11.33;100.0
39295;BME280;52361;52.100;5.248;2023-03-22T00:40:04;100808.0;;;11.28;100.0
39295;BME280;52361;52.100;5.248;2023-03-22T00:43:17;100806.0;;;11.21;100.0
39295;BME280;52361;52.100;5.248;2023-03-22T00:44:53;100803.0;;;11.23;100.0
39295;BME280;52361;52.100;5.248;2023-03-22T00:46:29;100795.0;;;11.21;100.0
39295;BME280;52361;52.100;5.248;2023-03-22T00:49:43;100792.0;;;11.16;100.0
39295;BME280;52361;52.100;5.248;2023-03-22T00:51:19;100785.0;;;11.07;100.0
39295;BME280;52361;52.100;5.248;2023-03-22T00:52:55;100784.0;;;11.1;100.0
39295;BME280;52361;52.100;5.248;2023-03-22T00:56:08;100782.0;;;11.04;100.0
39295;BME280;52361;52.100;5.248;2023-03-22T00:57:44;100780.0;;;11.06;100.0
39295;BME280;52361;52.100;5.248;2023-03-22T00:59:20;100778.0;;;10.93;100.0
39295;BME280;52361;52.100;5.248;2023-03-22T01:00:57;100771.0;;;10.79;100.0
39295;BME280;52361;52.100;5.248;2023-03-22T01:04:09;100768.0;;;10.91;100.0
39295;BME280;52361;52.100;5.248;2023-03-22T01:05:46;100765.0;;;10.83;100.0
39295;BME280;52361;52.100;5.248;2023-03-22T01:07:23;100758.0;;;10.8;100.0
39295;BME280;52361;52.100;5.248;2023-03-22T01:10:37;100755.0;;;10.8;100.0
39295;BME280;52361;52.100;5.248;2023-03-22T01:12:15;100749.0;;;10.81;100.0
39295;BME280;52361;52.100;5.248;2023-03-22T01:13:55;100749.0;;;10.88;100.0
39295;BME280;52361;52.100;5.248;2023-03-22T01:15:31;100741.0;;;10.84;100.0
39295;BME280;52361;52.100;5.248;2023-03-22T01:18:45;100738.0;;;10.92;100.0
39295;BME280;52361;52.100;5.248;2023-03-22T01:20:21;100735.0;;;10.96;100.0
39295;BME280;52361;52.100;5.248;2023-03-22T01:21:58;100734.0;;;11.02;100.0
39295;BME280;52361;52.100;5.248;2023-03-22T01:25:13;100726.0;;;11.05;100.0
39295;BME280;52361;52.100;5.248;2023-03-22T01:26:50;100726.0;;;11.07;100.0
39295;BME280;52361;52.100;5.248;2023-03-22T01:28:26;100722.0;;;11.06;100.0
39295;BME280;52361;52.100;5.248;2023-03-22T01:31:39;100717.0;;;11.04;100.0
39295;BME280;52361;52.100;5.248;2023-03-22T01:33:16;100721.0;;;11.08;100.0
39295;BME280;52361;52.100;5.248;2023-03-22T01:34:52;100720.0;;;11.06;100.0
39295;BME280;52361;52.100;5.248;2023-03-22T01:36:29;100713.0;;;11.12;100.0
39295;BME280;52361;52.100;5.248;2023-03-22T01:39:41;100709.0;;;11.1;100.0
39295;BME280;52361;52.100;5.248;2023-03-22T01:41:18;100709.0;;;11.17;100.0
39295;BME280;52361;52.100;5.248;2023-03-22T01:42:54;100701.0;;;11.14;100.0
39295;BME280;52361;52.100;5.248;2023-03-22T01:46:07;100692.0;;;11.03;100.0
39295;BME280;52361;52.100;5.248;2023-03-22T01:47:46;100690.0;;;11.0;100.0
39295;BME280;52361;52.100;5.248;2023-03-22T01:49:28;100684.0;;;11.15;100.0
39295;BME280;52361;52.100;5.248;2023-03-22T01:51:08;100681.0;;;11.11;100.0
39295;BME280;52361;52.100;5.248;2023-03-22T01:54:29;100677.0;;;11.16;100.0
39295;BME280;52361;52.100;5.248;2023-03-22T01:56:09;100667.0;;;11.26;100.0
39295;BME280;52361;52.100;5.248;2023-03-22T01:57:47;100670.0;;;11.24;100.0
39295;BME280;52361;52.100;5.248;2023-03-22T02:01:04;100669.0;;;11.26;100.0
39295;BME280;52361;52.100;5.248;2023-03-22T02:02:42;100666.0;;;11.33;100.0
39295;BME280;52361;52.100;5.248;2023-03-22T02:04:20;100665.0;;;11.29;100.0
39295;BME280;52361;52.100;5.248;2023-03-22T02:05:58;100656.0;;;11.23;100.0
39295;BME280;52361;52.100;5.248;2023-03-22T02:09:13;100651.0;;;11.3;100.0
39295;BME280;52361;52.100;5.248;2023-03-22T02:10:50;100648.0;;;11.35;100.0
39295;BME280;52361;52.100;5.248;2023-03-22T02:12:31;100645.0;;;11.43;100.0
39295;BME280;52361;52.100;5.248;2023-03-22T02:14:24;100640.0;;;11.46;100.0
39295;BME280;52361;52.100;5.248;2023-03-22T02:16:31;100637.0;;;11.42;100.0
39295;BME280;52361;52.100;5.248;2023-03-22T02:22:13;100633.0;;;11.47;100.0
39295;BME280;52361;52.100;5.248;2023-03-22T02:24:14;100628.0;;;11.36;100.0
39295;BME280;52361;52.100;5.248;2023-03-22T02:27:50;100620.0;;;11.36;100.0
39295;BME280;52361;52.100;5.248;2023-03-22T02:31:58;100620.0;;;11.42;100.0
39295;BME280;52361;52.100;5.248;2023-03-22T02:33:58;100609.0;;;11.41;100.0
39295;BME280;52361;52.100;5.248;2023-03-22T02:41:01;100610.0;;;11.34;100.0
39295;BME280;52361;52.100;5.248;2023-03-22T02:42:54;100601.0;;;11.32;100.0
39295;BME280;52361;52.100;5.248;2023-03-22T02:44:39;100602.0;;;11.35;100.0
39295;BME280;52361;52.100;5.248;2023-03-22T02:48:05;100599.0;;;11.44;100.0
39295;BME280;52361;52.100;5.248;2023-03-22T02:49:47;100599.0;;;11.48;100.0
39295;BME280;52361;52.100;5.248;2023-03-22T02:53:14;100589.0;;;11.46;100.0
39295;BME280;52361;52.100;5.248;2023-03-22T02:54:55;100592.0;;;11.47;100.0
39295;BME280;52361;52.100;5.248;2023-03-22T02:56:40;100585.0;;;11.46;100.0
39295;BME280;52361;52.100;5.248;2023-03-22T02:58:22;100580.0;;;11.44;100.0
39295;BME280;52361;52.100;5.248;2023-03-22T03:01:43;100583.0;;;11.48;100.0
39295;BME280;52361;52.100;5.248;2023-03-22T03:03:25;100573.0;;;11.46;100.0
39295;BME280;52361;52.100;5.248;2023-03-22T03:05:03;100576.0;;;11.53;100.0
39295;BME280;52361;52.100;5.248;2023-03-22T03:06:42;100573.0;;;11.56;100.0
39295;BME280;52361;52.100;5.248;2023-03-22T03:09:58;100576.0;;;11.6;100.0
39295;BME280;52361;52.100;5.248;2023-03-22T03:11:34;100571.0;;;11.55;100.0
39295;BME280;52361;52.100;5.248;2023-03-22T03:13:10;100573.0;;;11.56;100.0
39295;BME280;52361;52.100;5.248;2023-03-22T03:14:49;100575.0;;;11.58;100.0
39295;BME280;52361;52.100;5.248;2023-03-22T03:18:15;100575.0;;;11.54;100.0
39295;BME280;52361;52.100;5.248;2023-03-22T03:20:02;100574.0;;;11.54;100.0
39295;BME280;52361;52.100;5.248;2023-03-22T03:21:55;100575.0;;;11.64;100.0
39295;BME280;52361;52.100;5.248;2023-03-22T03:23:43;100578.0;;;11.61;100.0
39295;BME280;52361;52.100;5.248;2023-03-22T03:25:26;100582.0;;;11.61;100.0
39295;BME280;52361;52.100;5.248;2023-03-22T03:28:56;100575.0;;;11.56;100.0
39295;BME280;52361;52.100;5.248;2023-03-22T03:30:38;100575.0;;;11.52;100.0
39295;BME280;52361;52.100;5.248;2023-03-22T03:32:22;100573.0;;;11.51;100.0
39295;BME280;52361;52.100;5.248;2023-03-22T03:34:09;100574.0;;;11.51;100.0
39295;BME280;52361;52.100;5.248;2023-03-22T03:35:51;100569.0;;;11.55;100.0
39295;BME280;52361;52.100;5.248;2023-03-22T03:39:13;100574.0;;;11.62;100.0
39295;BME280;52361;52.100;5.248;2023-03-22T03:40:53;100570.0;;;11.62;100.0
39295;BME280;52361;52.100;5.248;2023-03-22T03:42:32;100568.0;;;11.63;100.0
39295;BME280;52361;52.100;5.248;2023-03-22T03:44:12;100568.0;;;11.64;100.0
39295;BME280;52361;52.100;5.248;2023-03-22T03:47:27;100568.0;;;11.62;100.0
39295;BME280;52361;52.100;5.248;2023-03-22T03:49:04;100564.0;;;11.66;100.0
39295;BME280;52361;52.100;5.248;2023-03-22T03:50:43;100563.0;;;11.74;100.0
39295;BME280;52361;52.100;5.248;2023-03-22T03:55:32;100564.0;;;11.64;100.0
39295;BME280;52361;52.100;5.248;2023-03-22T03:57:08;100572.0;;;11.68;100.0
39295;BME280;52361;52.100;5.248;2023-03-22T03:58:44;100565.0;;;11.76;100.0
39295;BME280;52361;52.100;5.248;2023-03-22T04:01:57;100563.0;;;11.78;100.0
39295;BME280;52361;52.100;5.248;2023-03-22T04:03:34;100567.0;;;11.67;100.0
39295;BME280;52361;52.100;5.248;2023-03-22T04:05:10;100568.0;;;11.74;100.0
39295;BME280;52361;52.100;5.248;2023-03-22T04:11:36;100573.0;;;11.73;100.0
39295;BME280;52361;52.100;5.248;2023-03-22T04:14:48;100568.0;;;11.66;100.0
39295;BME280;52361;52.100;5.248;2023-03-22T04:16:24;100563.0;;;11.85;100.0
39295;BME280;52361;52.100;5.248;2023-03-22T04:18:01;100560.0;;;11.74;100.0
39295;BME280;52361;52.100;5.248;2023-03-22T04:19:37;100552.0;;;11.72;100.0
39295;BME280;52361;52.100;5.248;2023-03-22T04:22:49;100557.0;;;11.7;100.0
39295;BME280;52361;52.100;5.248;2023-03-22T04:24:25;100555.0;;;11.68;100.0
39295;BME280;52361;52.100;5.248;2023-03-22T04:26:02;100549.0;;;11.72;100.0
39295;BME280;52361;52.100;5.248;2023-03-22T04:29:17;100545.0;;;11.78;100.0
39295;BME280;52361;52.100;5.248;2023-03-22T04:30:54;100543.0;;;11.78;100.0
39295;BME280;52361;52.100;5.248;2023-03-22T04:32:30;100542.0;;;11.78;100.0
39295;BME280;52361;52.100;5.248;2023-03-22T04:35:43;100532.0;;;11.7;100.0
39295;BME280;52361;52.100;5.248;2023-03-22T04:37:20;100531.0;;;11.76;100.0
39295;BME280;52361;52.100;5.248;2023-03-22T04:38:56;100531.0;;;11.7;100.0
39295;BME280;52361;52.100;5.248;2023-03-22T04:40:32;100531.0;;;11.56;100.0
39295;BME280;52361;52.100;5.248;2023-03-22T04:43:46;100530.0;;;11.67;100.0
39295;BME280;52361;52.100;5.248;2023-03-22T04:45:22;100531.0;;;11.71;100.0
39295;BME280;52361;52.100;5.248;2023-03-22T04:46:59;100533.0;;;11.75;100.0
39295;BME280;52361;52.100;5.248;2023-03-22T04:50:12;100534.0;;;11.71;100.0
39295;BME280;52361;52.100;5.248;2023-03-22T04:51:48;100531.0;;;11.68;100.0
39295;BME280;52361;52.100;5.248;2023-03-22T04:53:24;100531.0;;;11.68;100.0
39295;BME280;52361;52.100;5.248;2023-03-22T04:56:37;100531.0;;;11.73;100.0
39295;BME280;52361;52.100;5.248;2023-03-22T04:58:13;100526.0;;;11.72;100.0
39295;BME280;52361;52.100;5.248;2023-03-22T05:03:02;100516.0;;;11.63;100.0
39295;BME280;52361;52.100;5.248;2023-03-22T05:04:38;100518.0;;;11.6;100.0
39295;BME280;52361;52.100;5.248;2023-03-22T05:06:15;100517.0;;;11.66;100.0
39295;BME280;52361;52.100;5.248;2023-03-22T05:07:51;100512.0;;;11.6;100.0
39295;BME280;52361;52.100;5.248;2023-03-22T05:11:05;100514.0;;;11.68;100.0
39295;BME280;52361;52.100;5.248;2023-03-22T05:12:42;100514.0;;;11.66;100.0
39295;BME280;52361;52.100;5.248;2023-03-22T05:14:18;100510.0;;;11.7;100.0
39295;BME280;52361;52.100;5.248;2023-03-22T05:17:30;100511.0;;;11.63;100.0
39295;BME280;52361;52.100;5.248;2023-03-22T05:19:07;100513.0;;;11.59;100.0
39295;BME280;52361;52.100;5.248;2023-03-22T05:20:43;100509.0;;;11.55;100.0
39295;BME280;52361;52.100;5.248;2023-03-22T05:23:56;100516.0;;;11.58;100.0
39295;BME280;52361;52.100;5.248;2023-03-22T05:25:32;100518.0;;;11.59;100.0
39295;BME280;52361;52.100;5.248;2023-03-22T05:27:08;100517.0;;;11.58;100.0
39295;BME280;52361;52.100;5.248;2023-03-22T05:28:44;100513.0;;;11.56;100.0
39295;BME280;52361;52.100;5.248;2023-03-22T05:31:57;100511.0;;;11.49;100.0
39295;BME280;52361;52.100;5.248;2023-03-22T05:33:33;100508.0;;;11.43;100.0
39295;BME280;52361;52.100;5.248;2023-03-22T05:35:09;100505.0;;;11.43;100.0
39295;BME280;52361;52.100;5.248;2023-03-22T05:38:22;100500.0;;;11.4;100.0
39295;BME280;52361;52.100;5.248;2023-03-22T05:39:59;100503.0;;;11.42;100.0
39295;BME280;52361;52.100;5.248;2023-03-22T05:41:34;100501.0;;;11.43;100.0
39295;BME280;52361;52.100;5.248;2023-03-22T05:44:47;100509.0;;;11.39;100.0
39295;BME280;52361;52.100;5.248;2023-03-22T05:46:23;100506.0;;;11.32;100.0
39295;BME280;52361;52.100;5.248;2023-03-22T05:47:58;100501.0;;;11.38;100.0
39295;BME280;52361;52.100;5.248;2023-03-22T05:49:35;100498.0;;;11.38;100.0
39295;BME280;52361;52.100;5.248;2023-03-22T05:52:50;100489.0;;;11.43;100.0
39295;BME280;52361;52.100;5.248;2023-03-22T05:54:25;100482.0;;;11.42;100.0
39295;BME280;52361;52.100;5.248;2023-03-22T05:56:01;100480.0;;;11.46;100.0
39295;BME280;52361;52.100;5.248;2023-03-22T05:59:15;100483.0;;;11.4;100.0
39295;BME280;52361;52.100;5.248;2023-03-22T06:00:51;100482.0;;;11.47;100.0
39295;BME280;52361;52.100;5.248;2023-03-22T06:02:27;100484.0;;;11.47;100.0
39295;BME280;52361;52.100;5.248;2023-03-22T06:05:39;100489.0;;;11.39;100.0
39295;BME280;52361;52.100;5.248;2023-03-22T06:07:16;100488.0;;;11.5;100.0
39295;BME280;52361;52.100;5.248;2023-03-22T06:08:52;100482.0;;;11.52;100.0
39295;BME280;52361;52.100;5.248;2023-03-22T06:10:28;100485.0;;;11.55;100.0
39295;BME280;52361;52.100;5.248;2023-03-22T06:13:41;100485.0;;;11.45;100.0
39295;BME280;52361;52.100;5.248;2023-03-22T06:15:18;100487.0;;;11.43;100.0
39295;BME280;52361;52.100;5.248;2023-03-22T06:16:54;100487.0;;;11.41;100.0
39295;BME280;52361;52.100;5.248;2023-03-22T06:20:09;100490.0;;;11.47;100.0
39295;BME280;52361;52.100;5.248;2023-03-22T06:21:46;100489.0;;;11.45;100.0
39295;BME280;52361;52.100;5.248;2023-03-22T06:23:22;100484.0;;;11.51;100.0
39295;BME280;52361;52.100;5.248;2023-03-22T06:26:36;100489.0;;;11.51;100.0
39295;BME280;52361;52.100;5.248;2023-03-22T06:28:12;100484.0;;;11.57;100.0
39295;BME280;52361;52.100;5.248;2023-03-22T06:29:48;100488.0;;;11.53;100.0
39295;BME280;52361;52.100;5.248;2023-03-22T06:31:23;100487.0;;;11.55;100.0
39295;BME280;52361;52.100;5.248;2023-03-22T06:34:36;100489.0;;;11.56;100.0
39295;BME280;52361;52.100;5.248;2023-03-22T06:36:12;100491.0;;;11.7;100.0
39295;BME280;52361;52.100;5.248;2023-03-22T06:37:49;100487.0;;;11.72;100.0
39295;BME280;52361;52.100;5.248;2023-03-22T06:41:01;100494.0;;;11.75;100.0
39295;BME280;52361;52.100;5.248;2023-03-22T06:42:37;100488.0;;;11.71;100.0
39295;BME280;52361;52.100;5.248;2023-03-22T06:44:14;100494.0;;;11.83;100.0
39295;BME280;52361;52.100;5.248;2023-03-22T06:47:26;100495.0;;;11.87;100.0
39295;BME280;52361;52.100;5.248;2023-03-22T06:49:03;100496.0;;;11.9;100.0
39295;BME280;52361;52.100;5.248;2023-03-22T06:50:40;100491.0;;;11.9;100.0
39295;BME280;52361;52.100;5.248;2023-03-22T06:53:52;100491.0;;;11.96;100.0
39295;BME280;52361;52.100;5.248;2023-03-22T06:55:28;100494.0;;;11.97;100.0
39295;BME280;52361;52.100;5.248;2023-03-22T06:57:04;100498.0;;;12.1;100.0
39295;BME280;52361;52.100;5.248;2023-03-22T06:58:40;100494.0;;;12.05;100.0
39295;BME280;52361;52.100;5.248;2023-03-22T07:01:54;100498.0;;;12.14;100.0
39295;BME280;52361;52.100;5.248;2023-03-22T07:03:30;100500.0;;;12.16;100.0
39295;BME280;52361;52.100;5.248;2023-03-22T07:05:07;100497.0;;;12.1;100.0
39295;BME280;52361;52.100;5.248;2023-03-22T07:08:19;100490.0;;;12.07;100.0
39295;BME280;52361;52.100;5.248;2023-03-22T07:09:56;100495.0;;;12.1;100.0
39295;BME280;52361;52.100;5.248;2023-03-22T07:11:32;100493.0;;;12.14;100.0
39295;BME280;52361;52.100;5.248;2023-03-22T07:14:44;100494.0;;;12.17;100.0
39295;BME280;52361;52.100;5.248;2023-03-22T07:16:20;100496.0;;;12.13;100.0
39295;BME280;52361;52.100;5.248;2023-03-22T07:17:56;100496.0;;;12.2;100.0
39295;BME280;52361;52.100;5.248;2023-03-22T07:19:33;100502.0;;;12.14;100.0
39295;BME280;52361;52.100;5.248;2023-03-22T07:22:45;100497.0;;;12.2;100.0
39295;BME280;52361;52.100;5.248;2023-03-22T07:24:20;100497.0;;;12.26;100.0
39295;BME280;52361;52.100;5.248;2023-03-22T07:25:56;100495.0;;;12.3;100.0
39295;BME280;52361;52.100;5.248;2023-03-22T07:29:09;100494.0;;;12.31;100.0
39295;BME280;52361;52.100;5.248;2023-03-22T07:30:45;100498.0;;;12.28;100.0
39295;BME280;52361;52.100;5.248;2023-03-22T07:32:21;100495.0;;;12.22;100.0
39295;BME280;52361;52.100;5.248;2023-03-22T07:35:34;100481.0;;;12.21;100.0
39295;BME280;52361;52.100;5.248;2023-03-22T07:37:10;100490.0;;;12.22;100.0
39295;BME280;52361;52.100;5.248;2023-03-22T07:38:46;100485.0;;;12.24;100.0
39295;BME280;52361;52.100;5.248;2023-03-22T07:42:00;100474.0;;;12.36;100.0
39295;BME280;52361;52.100;5.248;2023-03-22T07:43:36;100482.0;;;12.37;100.0
39295;BME280;52361;52.100;5.248;2023-03-22T07:45:12;100484.0;;;12.48;100.0
39295;BME280;52361;52.100;5.248;2023-03-22T07:46:48;100482.0;;;12.49;100.0
39295;BME280;52361;52.100;5.248;2023-03-22T07:50:00;100485.0;;;12.65;100.0
39295;BME280;52361;52.100;5.248;2023-03-22T07:51:37;100488.0;;;12.77;100.0
39295;BME280;52361;52.100;5.248;2023-03-22T07:53:13;100481.0;;;12.84;100.0
39295;BME280;52361;52.100;5.248;2023-03-22T07:56:26;100486.0;;;12.95;100.0
39295;BME280;52361;52.100;5.248;2023-03-22T07:58:02;100481.0;;;13.06;100.0
39295;BME280;52361;52.100;5.248;2023-03-22T07:59:39;100488.0;;;13.13;100.0
39295;BME280;52361;52.100;5.248;2023-03-22T08:02:51;100488.0;;;13.23;100.0
39295;BME280;52361;52.100;5.248;2023-03-22T08:04:27;100487.0;;;13.22;100.0
39295;BME280;52361;52.100;5.248;2023-03-22T08:06:06;100487.0;;;13.32;100.0
39295;BME280;52361;52.100;5.248;2023-03-22T08:07:43;100480.0;;;13.25;100.0
39295;BME280;52361;52.100;5.248;2023-03-22T08:10:55;100483.0;;;13.2;100.0
39295;BME280;52361;52.100;5.248;2023-03-22T08:12:31;100485.0;;;13.23;100.0
39295;BME280;52361;52.100;5.248;2023-03-22T08:14:07;100483.0;;;13.22;100.0
39295;BME280;52361;52.100;5.248;2023-03-22T08:17:20;100492.0;;;13.3;100.0
39295;BME280;52361;52.100;5.248;2023-03-22T08:18:57;100490.0;;;13.42;100.0
39295;BME280;52361;52.100;5.248;2023-03-22T08:20:33;100484.0;;;13.33;100.0
39295;BME280;52361;52.100;5.248;2023-03-22T08:23:45;100494.0;;;13.33;100.0
39295;BME280;52361;52.100;5.248;2023-03-22T08:25:21;100487.0;;;13.27;100.0
39295;BME280;52361;52.100;5.248;2023-03-22T08:26:57;100492.0;;;13.22;100.0
39295;BME280;52361;52.100;5.248;2023-03-22T08:28:33;100489.0;;;13.11;100.0
39295;BME280;52361;52.100;5.248;2023-03-22T08:31:46;100490.0;;;13.04;100.0
39295;BME280;52361;52.100;5.248;2023-03-22T08:33:23;100482.0;;;12.95;100.0
39295;BME280;52361;52.100;5.248;2023-03-22T08:34:59;100484.0;;;12.9;100.0
39295;BME280;52361;52.100;5.248;2023-03-22T08:38:12;100482.0;;;12.93;100.0
39295;BME280;52361;52.100;5.248;2023-03-22T08:39:48;100484.0;;;12.88;100.0
39295;BME280;52361;52.100;5.248;2023-03-22T08:41:25;100484.0;;;12.95;100.0
39295;BME280;52361;52.100;5.248;2023-03-22T08:44:39;100480.0;;;12.98;100.0
39295;BME280;52361;52.100;5.248;2023-03-22T08:46:15;100476.0;;;13.02;100.0
39295;BME280;52361;52.100;5.248;2023-03-22T08:47:51;100482.0;;;13.07;100.0
39295;BME280;52361;52.100;5.248;2023-03-22T08:49:27;100484.0;;;12.98;100.0
39295;BME280;52361;52.100;5.248;2023-03-22T08:52:41;100481.0;;;12.93;100.0
39295;BME280;52361;52.100;5.248;2023-03-22T08:54:17;100487.0;;;12.95;100.0
39295;BME280;52361;52.100;5.248;2023-03-22T08:55:53;100478.0;;;12.9;100.0
39295;BME280;52361;52.100;5.248;2023-03-22T08:59:06;100483.0;;;12.91;100.0
39295;BME280;52361;52.100;5.248;2023-03-22T09:00:43;100478.0;;;12.92;100.0
39295;BME280;52361;52.100;5.248;2023-03-22T09:02:19;100487.0;;;12.91;100.0
39295;BME280;52361;52.100;5.248;2023-03-22T09:05:31;100477.0;;;12.84;100.0
39295;BME280;52361;52.100;5.248;2023-03-22T09:07:08;100485.0;;;12.93;100.0
39295;BME280;52361;52.100;5.248;2023-03-22T09:08:44;100480.0;;;12.87;100.0
39295;BME280;52361;52.100;5.248;2023-03-22T09:11:56;100487.0;;;12.91;100.0
39295;BME280;52361;52.100;5.248;2023-03-22T09:13:32;100485.0;;;12.91;100.0
39295;BME280;52361;52.100;5.248;2023-03-22T09:15:09;100489.0;;;12.87;100.0
39295;BME280;52361;52.100;5.248;2023-03-22T09:16:46;100503.0;;;12.86;100.0
39295;BME280;52361;52.100;5.248;2023-03-22T09:20:00;100490.0;;;12.75;100.0
39295;BME280;52361;52.100;5.248;2023-03-22T09:21:36;100496.0;;;12.74;100.0
39295;BME280;52361;52.100;5.248;2023-03-22T09:23:13;100493.0;;;12.72;100.0
39295;BME280;52361;52.100;5.248;2023-03-22T09:28:01;100486.0;;;12.62;100.0
39295;BME280;52361;52.100;5.248;2023-03-22T09:29:40;100496.0;;;12.65;100.0
39295;BME280;52361;52.100;5.248;2023-03-22T09:32:52;100501.0;;;12.62;100.0
39295;BME280;52361;52.100;5.248;2023-03-22T09:34:29;100492.0;;;12.57;100.0
39295;BME280;52361;52.100;5.248;2023-03-22T09:36:06;100494.0;;;12.55;100.0
39295;BME280;52361;52.100;5.248;2023-03-22T09:37:42;100486.0;;;12.39;100.0
39295;BME280;52361;52.100;5.248;2023-03-22T09:40:57;100494.0;;;12.27;100.0
39295;BME280;52361;52.100;5.248;2023-03-22T09:42:37;100491.0;;;12.35;100.0
39295;BME280;52361;52.100;5.248;2023-03-22T09:44:20;100477.0;;;12.23;100.0
39295;BME280;52361;52.100;5.248;2023-03-22T09:46:02;100478.0;;;12.23;100.0
39295;BME280;52361;52.100;5.248;2023-03-22T09:49:28;100486.0;;;12.14;100.0
39295;BME280;52361;52.100;5.248;2023-03-22T09:51:19;100485.0;;;12.08;100.0
39295;BME280;52361;52.100;5.248;2023-03-22T09:52:59;100487.0;;;12.13;100.0
39295;BME280;52361;52.100;5.248;2023-03-22T09:54:36;100489.0;;;12.16;100.0
39295;BME280;52361;52.100;5.248;2023-03-22T09:58:02;100492.0;;;12.13;100.0
39295;BME280;52361;52.100;5.248;2023-03-22T09:59:46;100477.0;;;12.11;100.0
39295;BME280;52361;52.100;5.248;2023-03-22T10:01:31;100493.0;;;12.1;100.0
39295;BME280;52361;52.100;5.248;2023-03-22T10:03:18;100481.0;;;12.1;100.0
39295;BME280;52361;52.100;5.248;2023-03-22T10:05:03;100480.0;;;12.06;100.0
39295;BME280;52361;52.100;5.248;2023-03-22T10:08:35;100483.0;;;12.19;100.0
39295;BME280;52361;52.100;5.248;2023-03-22T10:10:20;100480.0;;;12.21;100.0
39295;BME280;52361;52.100;5.248;2023-03-22T10:12:00;100477.0;;;12.1;100.0
39295;BME280;52361;52.100;5.248;2023-03-22T10:13:51;100476.0;;;12.14;100.0
39295;BME280;52361;52.100;5.248;2023-03-22T10:15:35;100473.0;;;11.99;100.0
39295;BME280;52361;52.100;5.248;2023-03-22T10:18:58;100469.0;;;12.0;100.0
39295;BME280;52361;52.100;5.248;2023-03-22T10:20:41;100473.0;;;11.97;100.0
39295;BME280;52361;52.100;5.248;2023-03-22T10:22:24;100471.0;;;11.99;100.0
39295;BME280;52361;52.100;5.248;2023-03-22T10:24:11;100476.0;;;12.04;100.0
39295;BME280;52361;52.100;5.248;2023-03-22T10:25:51;100483.0;;;12.07;100.0
39295;BME280;52361;52.100;5.248;2023-03-22T10:29:11;100475.0;;;12.03;100.0
39295;BME280;52361;52.100;5.248;2023-03-22T10:30:52;100478.0;;;12.06;100.0
39295;BME280;52361;52.100;5.248;2023-03-22T10:32:33;100475.0;;;12.08;100.0
39295;BME280;52361;52.100;5.248;2023-03-22T10:34:19;100468.0;;;11.99;100.0
39295;BME280;52361;52.100;5.248;2023-03-22T10:37:36;100485.0;;;12.12;100.0
39295;BME280;52361;52.100;5.248;2023-03-22T10:39:30;100484.0;;;12.05;100.0
39295;BME280;52361;52.100;5.248;2023-03-22T10:41:08;100474.0;;;11.99;100.0
39295;BME280;52361;52.100;5.248;2023-03-22T10:42:50;100492.0;;;11.98;100.0
39295;BME280;52361;52.100;5.248;2023-03-22T10:46:14;100500.0;;;11.99;100.0
39295;BME280;52361;52.100;5.248;2023-03-22T10:47:56;100482.0;;;11.9;100.0
39295;BME280;52361;52.100;5.248;2023-03-22T10:49:37;100476.0;;;11.97;100.0
39295;BME280;52361;52.100;5.248;2023-03-22T10:51:21;100477.0;;;11.99;100.0
39295;BME280;52361;52.100;5.248;2023-03-22T10:53:03;100481.0;;;12.0;100.0
39295;BME280;52361;52.100;5.248;2023-03-22T10:56:18;100475.0;;;11.98;100.0
39295;BME280;52361;52.100;5.248;2023-03-22T10:57:59;100464.0;;;12.09;100.0
39295;BME280;52361;52.100;5.248;2023-03-22T10:59:46;100465.0;;;12.17;100.0
39295;BME280;52361;52.100;5.248;2023-03-22T11:04:46;100460.0;;;12.15;100.0
39295;BME280;52361;52.100;5.248;2023-03-22T11:06:24;100451.0;;;12.11;100.0
39295;BME280;52361;52.100;5.248;2023-03-22T11:08:02;100459.0;;;12.15;100.0
39295;BME280;52361;52.100;5.248;2023-03-22T11:09:38;100452.0;;;12.11;100.0
39295;BME280;52361;52.100;5.248;2023-03-22T11:13:10;100458.0;;;12.13;100.0
39295;BME280;52361;52.100;5.248;2023-03-22T11:14:49;100456.0;;;12.13;100.0
39295;BME280;52361;52.100;5.248;2023-03-22T11:16:27;100459.0;;;12.24;100.0
39295;BME280;52361;52.100;5.248;2023-03-22T11:18:07;100457.0;;;12.32;100.0
39295;BME280;52361;52.100;5.248;2023-03-22T11:21:30;100463.0;;;12.31;100.0
39295;BME280;52361;52.100;5.248;2023-03-22T11:23:11;100453.0;;;12.36;100.0
39295;BME280;52361;52.100;5.248;2023-03-22T11:24:49;100457.0;;;12.4;100.0
39295;BME280;52361;52.100;5.248;2023-03-22T11:26:30;100456.0;;;12.4;100.0
39295;BME280;52361;52.100;5.248;2023-03-22T11:29:57;100455.0;;;12.47;100.0
39295;BME280;52361;52.100;5.248;2023-03-22T11:31:52;100459.0;;;12.49;100.0